Time;durP1;ratioP1;P1;durP2;ratioP2;P2;SDS_P1;SDS_P2;PMS_P1;PMS_P2;Temp;Humidity;BMP_temperature;BMP_pressure;BME280_temperature;BME280_humidity;BME280_pressure;Samples;Min_cycle;Max_cycle;Signal;HPM_P1;HPM_P2
2022/10/29 00:01:40;;;;;;;12.73;5.13;;;;;;;;;;5030382;28;20528;-67
2022/10/29 00:04:10;;;;;;;10.52;5.25;;;;;;;;;;5010022;28;20065;-67
2022/10/29 00:06:40;;;;;;;10.88;4.70;;;;;;;;;;4977898;28;20054;-67
2022/10/29 00:09:10;;;;;;;13.55;4.53;;;;;;;;;;5010022;28;20054;-67
2022/10/29 00:11:40;;;;;;;16.20;4.32;;;;;;;;;;5010431;28;20510;-67
2022/10/29 00:14:10;;;;;;;12.98;4.13;;;;;;;;;;5010225;28;20155;-67
2022/10/29 00:16:40;;;;;;;8.00;3.75;;;;;;;;;;5019154;28;20060;-67
2022/10/29 00:19:10;;;;;;;8.95;3.78;;;;;;;;;;5029712;28;20057;-67
2022/10/29 00:21:40;;;;;;;12.23;4.35;;;;;;;;;;5029969;28;20475;-67
2022/10/29 00:24:10;;;;;;;9.60;4.00;;;;;;;;;;5029694;28;20049;-67
2022/10/29 00:26:40;;;;;;;10.02;4.82;;;;;;;;;;5029651;28;20491;-67
2022/10/29 00:29:10;;;;;;;10.55;4.68;;;;;;;;;;5038276;28;20053;-67
2022/10/29 00:31:39;;;;;;;10.02;4.53;;;;;;;;;;5049758;28;20045;-67
2022/10/29 00:34:09;;;;;;;9.02;4.18;;;;;;;;;;5049544;28;20045;-67
2022/10/29 00:36:39;;;;;;;7.90;3.58;;;;;;;;;;5049628;28;20045;-68
2022/10/29 00:39:16;;;;;;;8.10;3.22;;;;;;;;;;5032856;28;20064;-67
2022/10/29 00:41:46;;;;;;;10.73;3.05;;;;;;;;;;5039115;28;20053;-67
2022/10/29 00:44:21;;;;;;;10.98;3.20;;;;;;;;;;5000256;28;20057;-67
2022/10/29 00:46:56;;;;;;;10.38;3.45;;;;;;;;;;5049538;28;20055;-67
2022/10/29 00:49:27;;;;;;;9.20;3.38;;;;;;;;;;5000248;28;20063;-67
2022/10/29 00:52:00;;;;;;;7.18;3.80;;;;;;;;;;5049405;28;20049;-67
2022/10/29 00:54:35;;;;;;;8.43;3.90;;;;;;;;;;5065465;28;20511;-67
2022/10/29 00:57:16;;;;;;;12.88;4.40;;;;;;;;;;5032786;28;20057;-66
2022/10/29 00:59:48;;;;;;;9.75;4.05;;;;;;;;;;5049503;28;20060;-66
2022/10/29 01:02:19;;;;;;;9.82;4.38;;;;;;;;;;5048234;28;20049;-66
2022/10/29 01:04:52;;;;;;;10.50;4.25;;;;;;;;;;5028916;28;20049;-66
2022/10/29 01:07:23;;;;;;;11.18;5.20;;;;;;;;;;5013158;28;20531;-66
2022/10/29 01:09:53;;;;;;;8.60;4.05;;;;;;;;;;4980108;28;20058;-66
2022/10/29 01:12:42;;;;;;;12.63;4.32;;;;;;;;;;5009339;28;20061;-66
2022/10/29 01:15:26;;;;;;;10.70;4.85;;;;;;;;;;4989411;28;20101;-66
2022/10/29 01:18:08;;;;;;;11.63;5.32;;;;;;;;;;4989677;28;20434;-66
2022/10/29 01:21:04;;;;;;;16.10;4.85;;;;;;;;;;4989868;28;20046;-66
2022/10/29 01:23:40;;;;;;;10.63;5.38;;;;;;;;;;4989686;28;20418;-66
2022/10/29 01:26:22;;;;;;;8.98;4.78;;;;;;;;;;4941229;28;20042;-66
2022/10/29 01:29:38;;;;;;;11.60;4.60;;;;;;;;;;4989538;28;20046;-66
2022/10/29 01:32:21;;;;;;;9.70;4.13;;;;;;;;;;4957459;28;20046;-66
2022/10/29 01:35:10;;;;;;;10.70;5.25;;;;;;;;;;4989599;28;20043;-67
2022/10/29 01:38:13;;;;;;;10.13;5.70;;;;;;;;;;4989628;28;20434;-66
2022/10/29 01:41:08;;;;;;;;;;;;;;;;;;4990125;28;20063;-66
2022/10/29 01:43:50;;;;;;;12.02;5.32;;;;;;;;;;4973548;28;20329;-65
2022/10/29 01:46:49;;;;;;;11.43;5.22;;;;;;;;;;4989457;28;20069;-66
2022/10/29 01:49:34;;;;;;;16.27;4.93;;;;;;;;;;4978652;28;20062;-65
2022/10/29 01:52:06;;;;;;;10.52;5.10;;;;;;;;;;5008966;28;20074;-66
2022/10/29 01:54:44;;;;;;;12.77;5.72;;;;;;;;;;5008887;28;20046;-65
2022/10/29 01:57:35;;;;;;;20.23;5.65;;;;;;;;;;5009342;28;20068;-65
2022/10/29 02:00:14;;;;;;;12.05;5.10;;;;;;;;;;4992628;28;20053;-65
2022/10/29 02:03:02;;;;;;;11.18;5.28;;;;;;;;;;5009102;28;20046;-65
2022/10/29 02:05:44;;;;;;;14.30;5.35;;;;;;;;;;4992506;28;20054;-65
2022/10/29 02:08:49;;;;;;;16.90;5.00;;;;;;;;;;4989433;28;20101;-65
2022/10/29 02:11:24;;;;;;;13.43;4.65;;;;;;;;;;4957130;28;20066;-66
2022/10/29 02:14:01;;;;;;;13.48;5.65;;;;;;;;;;4959839;28;20481;-66
2022/10/29 02:16:33;;;;;;;11.63;5.03;;;;;;;;;;4960571;28;20050;-65
2022/10/29 02:19:05;;;;;;;12.23;5.10;;;;;;;;;;4992749;28;20054;-66
2022/10/29 02:21:35;;;;;;;11.52;4.10;;;;;;;;;;5009030;28;20383;-66
2022/10/29 02:24:05;;;;;;;13.35;4.05;;;;;;;;;;4992793;28;20051;-65
2022/10/29 02:26:35;;;;;;;13.48;4.55;;;;;;;;;;4991144;28;20057;-66
2022/10/29 02:29:05;;;;;;;11.38;4.75;;;;;;;;;;5031697;28;20409;-65
2022/10/29 02:31:35;;;;;;;9.23;4.50;;;;;;;;;;5032106;28;20060;-65
2022/10/29 02:34:05;;;;;;;9.43;4.68;;;;;;;;;;5031596;28;20430;-66
2022/10/29 02:36:35;;;;;;;12.93;4.47;;;;;;;;;;5015943;28;20477;-66
2022/10/29 02:39:05;;;;;;;10.10;4.65;;;;;;;;;;5039930;28;20068;-66
2022/10/29 02:41:35;;;;;;;11.55;4.70;;;;;;;;;;5054313;28;20041;-65
2022/10/29 02:44:04;;;;;;;15.52;4.43;;;;;;;;;;5054076;28;20045;-65
2022/10/29 02:46:38;;;;;;;7.20;3.72;;;;;;;;;;5051335;28;20076;-66
2022/10/29 02:49:08;;;;;;;9.93;4.53;;;;;;;;;;5034720;28;20091;-66
2022/10/29 02:51:38;;;;;;;9.35;4.00;;;;;;;;;;5051416;28;20061;-66
2022/10/29 02:54:08;;;;;;;9.48;4.30;;;;;;;;;;5034498;28;20060;-66
2022/10/29 02:56:38;;;;;;;8.80;3.78;;;;;;;;;;5051527;28;20509;-66
2022/10/29 02:59:08;;;;;;;9.32;3.95;;;;;;;;;;5051509;28;20542;-66
2022/10/29 03:01:39;;;;;;;15.02;4.30;;;;;;;;;;5051616;28;20570;-66
2022/10/29 03:04:10;;;;;;;11.70;3.78;;;;;;;;;;5051480;28;20072;-67
2022/10/29 03:06:40;;;;;;;13.77;4.65;;;;;;;;;;5051479;28;20416;-67
2022/10/29 03:09:11;;;;;;;12.20;3.92;;;;;;;;;;5051404;28;20048;-66
2022/10/29 03:11:40;;;;;;;6.88;3.85;;;;;;;;;;5051224;28;20049;-67
2022/10/29 03:14:10;;;;;;;17.17;4.13;;;;;;;;;;5050840;28;20057;-67
2022/10/29 03:16:40;;;;;;;11.75;3.80;;;;;;;;;;5001812;28;20057;-67
2022/10/29 03:19:10;;;;;;;11.13;4.70;;;;;;;;;;5034684;28;20422;-65
2022/10/29 03:21:39;;;;;;;11.18;4.07;;;;;;;;;;5034935;28;20424;-65
2022/10/29 03:24:09;;;;;;;13.50;4.45;;;;;;;;;;5033288;28;20057;-66
2022/10/29 03:26:39;;;;;;;12.35;4.78;;;;;;;;;;5050980;28;20056;-66
2022/10/29 03:29:09;;;;;;;12.93;4.70;;;;;;;;;;5017868;28;20057;-66
2022/10/29 03:31:39;;;;;;;10.93;3.97;;;;;;;;;;5051046;28;20061;-66
2022/10/29 03:34:09;;;;;;;12.93;4.70;;;;;;;;;;5017244;28;20048;-67
2022/10/29 03:36:39;;;;;;;8.88;4.15;;;;;;;;;;5001201;28;20067;-65
2022/10/29 03:39:09;;;;;;;9.75;3.95;;;;;;;;;;5050696;28;20139;-66
2022/10/29 03:41:38;;;;;;;9.80;4.05;;;;;;;;;;5050676;28;20049;-66
2022/10/29 03:44:08;;;;;;;14.05;4.60;;;;;;;;;;5050922;28;20489;-66
2022/10/29 03:46:38;;;;;;;10.32;4.65;;;;;;;;;;5050442;28;20113;-66
2022/10/29 03:49:08;;;;;;;11.75;5.03;;;;;;;;;;5001084;28;20106;-67
2022/10/29 03:51:38;;;;;;;9.98;4.97;;;;;;;;;;5050293;28;20064;-65
2022/10/29 03:54:08;;;;;;;17.15;5.03;;;;;;;;;;5017390;28;20069;-65
2022/10/29 03:56:38;;;;;;;9.82;4.55;;;;;;;;;;5050251;28;20444;-65
2022/10/29 03:59:08;;;;;;;11.95;4.85;;;;;;;;;;5050115;28;20064;-66
2022/10/29 04:01:42;;;;;;;7.22;3.67;;;;;;;;;;5018346;28;20060;-66
2022/10/29 04:04:13;;;;;;;13.15;4.28;;;;;;;;;;5066568;28;20053;-66
2022/10/29 04:06:43;;;;;;;11.10;4.47;;;;;;;;;;5050085;28;20045;-66
2022/10/29 04:09:13;;;;;;;11.23;4.90;;;;;;;;;;5050219;28;20057;-66
2022/10/29 04:11:42;;;;;;;12.15;4.20;;;;;;;;;;5051113;28;20056;-66
2022/10/29 04:14:12;;;;;;;12.75;4.15;;;;;;;;;;5052040;28;20056;-66
2022/10/29 04:16:42;;;;;;;9.75;4.15;;;;;;;;;;5050268;28;20065;-67
2022/10/29 04:19:12;;;;;;;10.45;4.15;;;;;;;;;;5050362;28;20057;-67
2022/10/29 04:21:42;;;;;;;14.35;4.05;;;;;;;;;;5052253;28;20054;-67
2022/10/29 04:24:32;;;;;;;10.40;4.80;;;;;;;;;;5052184;28;20412;-67
2022/10/29 04:27:22;;;;;;;9.88;3.88;;;;;;;;;;5052122;28;20056;-66
2022/10/29 04:30:12;;;;;;;11.82;4.75;;;;;;;;;;5064780;28;20108;-67
2022/10/29 04:32:43;;;;;;;13.15;4.63;;;;;;;;;;5050116;28;20061;-67
2022/10/29 04:35:13;;;;;;;18.20;4.53;;;;;;;;;;5049424;28;20519;-67
2022/10/29 04:37:42;;;;;;;12.23;4.43;;;;;;;;;;5066657;28;20060;-68
2022/10/29 04:40:12;;;;;;;12.68;3.92;;;;;;;;;;5051917;28;20045;-67
2022/10/29 04:42:42;;;;;;;7.80;4.05;;;;;;;;;;5033507;28;20060;-68
2022/10/29 04:45:12;;;;;;;9.63;4.00;;;;;;;;;;5033339;28;20072;-68
2022/10/29 04:47:42;;;;;;;21.38;5.45;;;;;;;;;;5033329;28;20448;-68
2022/10/29 04:50:12;;;;;;;9.25;4.20;;;;;;;;;;5051697;28;20052;-68
2022/10/29 04:52:43;;;;;;;12.70;4.30;;;;;;;;;;5049378;28;20136;-68
2022/10/29 04:55:13;;;;;;;11.75;4.40;;;;;;;;;;5049167;28;20446;-68
2022/10/29 04:57:47;;;;;;;12.43;3.67;;;;;;;;;;5032468;28;20057;-68
2022/10/29 05:00:18;;;;;;;10.50;3.83;;;;;;;;;;5048914;28;20037;-68
2022/10/29 05:02:49;;;;;;;8.77;4.03;;;;;;;;;;5032874;28;20179;-68
2022/10/29 05:05:20;;;;;;;9.98;4.53;;;;;;;;;;5016018;28;20499;-68
2022/10/29 05:08:01;;;;;;;13.15;5.10;;;;;;;;;;5033122;28;20523;-68
2022/10/29 05:10:35;;;;;;;12.57;4.28;;;;;;;;;;5032332;28;20060;-68
2022/10/29 05:13:09;;;;;;;9.48;3.78;;;;;;;;;;5049201;28;20049;-68
2022/10/29 05:15:39;;;;;;;10.15;4.10;;;;;;;;;;5048926;28;20057;-68
2022/10/29 05:18:09;;;;;;;11.82;3.80;;;;;;;;;;5049216;28;20049;-68
2022/10/29 05:20:40;;;;;;;9.65;3.88;;;;;;;;;;5048949;28;20493;-68
2022/10/29 05:23:11;;;;;;;8.93;4.18;;;;;;;;;;5032111;28;20615;-68
2022/10/29 05:25:41;;;;;;;12.43;4.47;;;;;;;;;;4999822;28;20104;-68
2022/10/29 05:28:14;;;;;;;11.65;4.50;;;;;;;;;;5015746;28;20056;-67
2022/10/29 05:30:45;;;;;;;9.30;3.95;;;;;;;;;;5050240;28;20078;-69
2022/10/29 05:33:18;;;;;;;11.23;4.32;;;;;;;;;;5032259;28;20057;-68
2022/10/29 05:35:49;;;;;;;10.90;4.47;;;;;;;;;;5051325;28;20213;-67
2022/10/29 05:38:19;;;;;;;11.50;4.18;;;;;;;;;;5065886;28;20060;-68
2022/10/29 05:40:50;;;;;;;10.35;4.35;;;;;;;;;;5032400;28;20536;-68
2022/10/29 05:43:19;;;;;;;8.63;4.55;;;;;;;;;;5052489;28;20055;-68
2022/10/29 05:45:49;;;;;;;11.93;4.55;;;;;;;;;;5068590;28;20056;-68
2022/10/29 05:48:19;;;;;;;9.35;3.92;;;;;;;;;;5071022;28;20060;-68
2022/10/29 05:50:50;;;;;;;10.50;4.28;;;;;;;;;;5056393;28;20079;-69
2022/10/29 05:53:20;;;;;;;10.32;4.60;;;;;;;;;;5072986;28;20060;-68
2022/10/29 05:55:50;;;;;;;11.63;4.78;;;;;;;;;;5072154;28;20456;-68
2022/10/29 05:58:20;;;;;;;12.13;4.28;;;;;;;;;;5039344;28;20049;-68
2022/10/29 06:00:50;;;;;;;10.20;4.05;;;;;;;;;;5055610;28;20053;-68
2022/10/29 06:03:21;;;;;;;10.38;3.90;;;;;;;;;;5072566;28;20056;-68
2022/10/29 06:05:52;;;;;;;14.50;4.43;;;;;;;;;;5055689;28;21143;-68
2022/10/29 06:08:23;;;;;;;14.27;4.57;;;;;;;;;;5039046;28;20052;-68
2022/10/29 06:10:53;;;;;;;7.65;4.10;;;;;;;;;;5072269;28;20048;-68
2022/10/29 06:13:23;;;;;;;13.77;4.70;;;;;;;;;;5072474;28;20052;-68
2022/10/29 06:15:59;;;;;;;10.20;5.75;;;;;;;;;;5055187;28;20553;-68
2022/10/29 06:18:29;;;;;;;11.00;4.47;;;;;;;;;;5072440;28;20045;-68
2022/10/29 06:21:00;;;;;;;8.73;4.35;;;;;;;;;;5039190;28;20059;-68
2022/10/29 06:23:30;;;;;;;7.53;3.63;;;;;;;;;;5055276;28;20084;-68
2022/10/29 06:26:00;;;;;;;10.80;4.35;;;;;;;;;;5072022;28;20095;-68
2022/10/29 06:28:31;;;;;;;11.95;4.40;;;;;;;;;;5015361;28;20493;-68
2022/10/29 06:31:03;;;;;;;6.57;3.45;;;;;;;;;;5031888;28;20053;-68
2022/10/29 06:33:32;;;;;;;6.70;3.40;;;;;;;;;;5031949;28;20065;-67
2022/10/29 06:36:02;;;;;;;7.95;3.47;;;;;;;;;;5008702;28;20069;-68
2022/10/29 06:38:32;;;;;;;7.57;3.75;;;;;;;;;;5031630;28;20056;-68
2022/10/29 06:41:02;;;;;;;10.80;3.95;;;;;;;;;;4998859;28;20065;-68
2022/10/29 06:43:32;;;;;;;12.68;3.92;;;;;;;;;;4998588;28;20061;-68
2022/10/29 06:46:02;;;;;;;9.70;3.97;;;;;;;;;;4982538;28;20139;-68
2022/10/29 06:48:32;;;;;;;9.63;4.90;;;;;;;;;;4998733;28;20065;-68
2022/10/29 06:51:02;;;;;;;7.80;3.80;;;;;;;;;;4998989;28;20062;-68
2022/10/29 06:53:32;;;;;;;9.43;4.15;;;;;;;;;;5031839;28;20053;-68
2022/10/29 06:56:02;;;;;;;7.63;3.55;;;;;;;;;;5031716;28;20485;-68
2022/10/29 06:58:32;;;;;;;7.18;3.65;;;;;;;;;;5031639;28;20050;-67
2022/10/29 07:01:01;;;;;;;7.45;3.88;;;;;;;;;;5031717;28;20080;-68
2022/10/29 07:03:31;;;;;;;7.40;3.88;;;;;;;;;;5031560;28;20053;-68
2022/10/29 07:06:01;;;;;;;7.80;3.22;;;;;;;;;;5007285;28;20067;-67
2022/10/29 07:08:32;;;;;;;11.85;3.72;;;;;;;;;;5051255;28;20057;-68
2022/10/29 07:11:03;;;;;;;9.40;4.35;;;;;;;;;;5050989;28;20057;-68
2022/10/29 07:13:33;;;;;;;12.40;4.05;;;;;;;;;;5017577;28;20501;-68
2022/10/29 07:16:03;;;;;;;5.88;3.33;;;;;;;;;;5051173;28;20049;-68
2022/10/29 07:18:33;;;;;;;8.55;3.63;;;;;;;;;;5050846;28;20057;-68
2022/10/29 07:21:04;;;;;;;5.70;3.10;;;;;;;;;;5051217;28;20045;-68
2022/10/29 07:23:34;;;;;;;8.02;4.00;;;;;;;;;;5034700;28;20092;-67
2022/10/29 07:26:04;;;;;;;10.30;3.30;;;;;;;;;;5017751;28;20065;-68
2022/10/29 07:28:34;;;;;;;11.23;3.88;;;;;;;;;;5034066;28;20053;-68
2022/10/29 07:31:04;;;;;;;11.77;4.20;;;;;;;;;;5017443;28;20052;-68
2022/10/29 07:33:35;;;;;;;7.63;3.40;;;;;;;;;;5034742;28;20055;-68
2022/10/29 07:36:05;;;;;;;7.55;3.55;;;;;;;;;;5050415;28;20057;-68
2022/10/29 07:38:35;;;;;;;6.95;3.70;;;;;;;;;;5050618;28;20052;-68
2022/10/29 07:41:05;;;;;;;9.68;3.55;;;;;;;;;;5033778;28;20083;-68
2022/10/29 07:43:35;;;;;;;8.20;4.32;;;;;;;;;;4984960;28;20064;-68
2022/10/29 07:46:05;;;;;;;9.65;4.63;;;;;;;;;;5034636;28;20060;-66
2022/10/29 07:48:35;;;;;;;9.77;4.93;;;;;;;;;;5050579;28;20493;-64
2022/10/29 07:51:05;;;;;;;12.57;5.88;;;;;;;;;;5052973;28;20045;-66
2022/10/29 07:53:35;;;;;;;11.15;5.57;;;;;;;;;;5052557;28;20056;-67
2022/10/29 07:56:05;;;;;;;11.23;5.55;;;;;;;;;;5067367;28;20504;-70
2022/10/29 07:58:35;;;;;;;11.13;6.07;;;;;;;;;;5052528;28;20056;-71
2022/10/29 08:01:05;;;;;;;10.93;5.85;;;;;;;;;;5052664;28;20048;-71
2022/10/29 08:03:35;;;;;;;16.45;6.47;;;;;;;;;;5052722;28;20064;-71
2022/10/29 08:06:05;;;;;;;14.05;6.85;;;;;;;;;;5050557;28;20057;-70
2022/10/29 08:08:34;;;;;;;14.45;6.47;;;;;;;;;;5033313;28;20071;-69
2022/10/29 08:11:05;;;;;;;17.10;7.03;;;;;;;;;;5049556;28;20053;-69
2022/10/29 08:13:35;;;;;;;12.60;7.13;;;;;;;;;;5050049;28;20420;-69
2022/10/29 08:16:05;;;;;;;12.07;6.65;;;;;;;;;;5050419;28;20052;-68
2022/10/29 08:18:35;;;;;;;11.63;7.32;;;;;;;;;;5050128;28;20408;-68
2022/10/29 08:21:05;;;;;;;13.52;6.03;;;;;;;;;;5017259;28;20064;-68
2022/10/29 08:23:35;;;;;;;14.07;6.63;;;;;;;;;;5016588;28;20516;-68
2022/10/29 08:26:05;;;;;;;12.70;7.18;;;;;;;;;;5049871;28;20079;-68
2022/10/29 08:28:35;;;;;;;13.38;6.22;;;;;;;;;;5016931;28;20061;-67
2022/10/29 08:31:05;;;;;;;11.98;6.38;;;;;;;;;;5049850;28;20056;-65
2022/10/29 08:36:14;;;;;;;17.10;7.28;;;;;;;;;;5134233;27;20128;-71
2022/10/29 08:48:46;;;;;;;11.25;6.05;;;;;;;;;;5100876;27;20489;-58
2022/10/29 08:51:27;;;;;;;12.20;5.25;;;;;;;;;;5107669;28;20048;-59
2022/10/29 08:53:57;;;;;;;10.70;5.07;;;;;;;;;;5107822;28;20051;-58
2022/10/29 08:56:57;;;;;;;11.57;4.35;;;;;;;;;;5107865;28;20064;-59
2022/10/29 08:59:35;;;;;;;8.88;3.15;;;;;;;;;;5107939;28;20043;-60
2022/10/29 09:02:16;;;;;;;1.92;1.02;;;;;;;;;;5107601;28;20063;-61
2022/10/29 09:04:47;;;;;;;1.90;0.93;;;;;;;;;;5074945;28;20458;-61
2022/10/29 09:07:46;;;;;;;3.03;1.35;;;;;;;;;;5107581;28;20154;-61
2022/10/29 09:10:32;;;;;;;6.05;1.88;;;;;;;;;;5107529;28;20063;-61
2022/10/29 09:13:17;;;;;;;3.65;1.85;;;;;;;;;;5107556;28;20043;-62
2022/10/29 09:15:53;;;;;;;2.92;1.52;;;;;;;;;;5107503;28;20051;-63
2022/10/29 09:18:44;;;;;;;2.00;0.80;;;;;;;;;;5107548;28;20055;-62
2022/10/29 09:21:17;;;;;;;2.17;0.73;;;;;;;;;;5107301;28;20565;-62
2022/10/29 09:24:23;;;;;;;3.15;0.73;;;;;;;;;;5056844;28;20064;-61
2022/10/29 09:27:02;;;;;;;1.73;0.98;;;;;;;;;;5107190;28;20047;-61
2022/10/29 09:30:12;;;;;;;2.63;1.00;;;;;;;;;;5108865;28;20066;-62
2022/10/29 09:33:06;;;;;;;2.47;1.23;;;;;;;;;;5109202;28;20051;-62
2022/10/29 09:35:45;;;;;;;2.28;1.25;;;;;;;;;;5109369;28;20044;-63
2022/10/29 09:38:34;;;;;;;2.97;1.10;;;;;;;;;;5090787;28;20052;-61
2022/10/29 09:41:05;;;;;;;2.78;1.38;;;;;;;;;;5056417;28;20494;-62
2022/10/29 09:43:54;;;;;;;2.17;1.25;;;;;;;;;;5056203;28;20062;-61
2022/10/29 09:47:01;;;;;;;2.97;1.23;;;;;;;;;;5056224;28;20446;-61
2022/10/29 09:49:56;;;;;;;4.32;1.13;;;;;;;;;;5106771;28;20074;-61
2022/10/29 09:52:38;;;;;;;5.72;1.33;;;;;;;;;;5106535;28;20047;-60
2022/10/29 09:55:21;;;;;;;3.80;1.30;;;;;;;;;;5106825;28;20066;-61
2022/10/29 09:57:53;;;;;;;5.10;1.63;;;;;;;;;;5104166;28;20066;-60
2022/10/29 10:00:27;;;;;;;2.97;1.40;;;;;;;;;;5092895;28;20040;-61
2022/10/29 10:03:30;;;;;;;2.05;1.23;;;;;;;;;;5092871;28;20056;-60
2022/10/29 10:06:02;;;;;;;5.55;1.08;;;;;;;;;;5012576;28;20050;-60
2022/10/29 10:08:34;;;;;;;2.50;1.30;;;;;;;;;;5012847;28;20054;-61
2022/10/29 10:11:08;;;;;;;1.88;0.93;;;;;;;;;;5012463;28;20559;-61
2022/10/29 10:13:52;;;;;;;3.10;1.40;;;;;;;;;;5012885;28;20057;-60
2022/10/29 10:16:32;;;;;;;2.53;1.00;;;;;;;;;;5028948;28;20058;-60
2022/10/29 10:19:03;;;;;;;2.15;1.23;;;;;;;;;;5012943;28;20056;-60
2022/10/29 10:21:33;;;;;;;3.38;1.25;;;;;;;;;;5012526;28;20405;-60
2022/10/29 10:24:33;;;;;;;4.93;1.65;;;;;;;;;;5012496;28;20622;-60
2022/10/29 10:27:18;;;;;;;4.47;1.60;;;;;;;;;;5028965;28;20504;-60
2022/10/29 10:30:04;;;;;;;4.03;1.27;;;;;;;;;;5012512;28;20054;-60
2022/10/29 10:32:34;;;;;;;2.13;1.10;;;;;;;;;;5012460;28;20054;-61
2022/10/29 10:35:27;;;;;;;3.08;1.23;;;;;;;;;;5032060;28;20049;-60
2022/10/29 10:38:05;;;;;;;3.60;1.33;;;;;;;;;;5015014;28;20050;-59
2022/10/29 10:40:36;;;;;;;5.32;1.23;;;;;;;;;;5031947;28;20065;-59
2022/10/29 10:43:07;;;;;;;2.83;1.05;;;;;;;;;;4976619;28;20107;-58
2022/10/29 10:45:39;;;;;;;3.47;1.52;;;;;;;;;;5018729;28;20057;-60
2022/10/29 10:48:10;;;;;;;1.90;0.93;;;;;;;;;;5056821;28;21114;-59
2022/10/29 10:50:40;;;;;;;2.78;1.15;;;;;;;;;;5067783;28;20048;-61
2022/10/29 10:53:19;;;;;;;2.22;1.00;;;;;;;;;;5071612;28;20063;-62
2022/10/29 10:55:58;;;;;;;4.57;1.00;;;;;;;;;;5071971;28;20040;-61
2022/10/29 10:58:38;;;;;;;2.90;0.95;;;;;;;;;;5071625;28;20059;-62
2022/10/29 11:01:14;;;;;;;5.45;2.35;;;;;;;;;;5071659;28;20123;-61
2022/10/29 11:03:57;;;;;;;6.50;2.97;;;;;;;;;;5071369;28;20059;-62
2022/10/29 11:06:31;;;;;;;1.27;0.88;;;;;;;;;;5071500;28;20075;-61
2022/10/29 11:09:24;;;;;;;1.50;0.93;;;;;;;;;;5021785;28;20526;-62
2022/10/29 11:12:07;;;;;;;4.45;1.20;;;;;;;;;;4985021;28;20049;-62
2022/10/29 11:14:45;;;;;;;2.50;1.05;;;;;;;;;;5018418;28;20491;-62
2022/10/29 11:17:23;;;;;;;;;;;;;;;;;;5051831;28;20057;-61
2022/10/29 11:19:58;;;;;;;4.03;1.30;;;;;;;;;;5018836;28;19921;-61
2022/10/29 11:22:48;;;;;;;3.38;1.73;;;;;;;;;;5051542;28;20053;-61
2022/10/29 11:25:39;;;;;;;4.40;1.90;;;;;;;;;;5051113;28;20045;-62
2022/10/29 11:28:09;;;;;;;3.33;1.20;;;;;;;;;;5001732;28;20064;-62
2022/10/29 11:30:46;;;;;;;2.47;1.05;;;;;;;;;;5017887;28;20053;-61
2022/10/29 11:33:40;;;;;;;4.53;1.25;;;;;;;;;;5034209;28;20495;-62
2022/10/29 11:36:14;;;;;;;2.60;1.05;;;;;;;;;;5050885;28;20408;-61
2022/10/29 11:39:12;;;;;;;3.22;1.27;;;;;;;;;;5034078;28;20075;-61
2022/10/29 11:42:01;;;;;;;3.47;1.50;;;;;;;;;;5018201;28;20057;-62
2022/10/29 11:44:38;;;;;;;2.75;1.02;;;;;;;;;;5050972;28;20052;-61
2022/10/29 11:47:34;;;;;;;3.10;0.93;;;;;;;;;;5050458;28;20045;-61
2022/10/29 11:50:08;;;;;;;3.97;1.58;;;;;;;;;;5089014;28;20052;-61
2022/10/29 11:53:14;;;;;;;2.33;0.95;;;;;;;;;;5093249;28;20047;-61
2022/10/29 11:56:06;;;;;;;6.35;1.13;;;;;;;;;;5070158;28;20049;-61
2022/10/29 11:59:07;;;;;;;2.45;1.17;;;;;;;;;;5036890;28;20055;-60
2022/10/29 12:02:19;;;;;;;2.58;1.15;;;;;;;;;;4994152;28;20493;-64
2022/10/29 12:05:00;;;;;;;2.40;0.93;;;;;;;;;;4955388;28;20047;-64
2022/10/29 12:07:50;;;;;;;2.60;0.93;;;;;;;;;;4971545;28;20059;-65
2022/10/29 12:10:28;;;;;;;2.05;0.80;;;;;;;;;;4939443;28;20050;-64
2022/10/29 12:19:34;;;;;;;1.98;0.80;;;;;;;;;;5155234;27;20245;-69
2022/10/29 12:22:45;;;;;;;2.03;0.70;;;;;;;;;;5073503;28;20051;-65
2022/10/29 12:25:29;;;;;;;3.05;0.93;;;;;;;;;;5037198;28;20186;-65
2022/10/29 12:28:25;;;;;;;4.88;1.55;;;;;;;;;;4993243;28;20393;-66
2022/10/29 12:30:58;;;;;;;6.10;2.03;;;;;;;;;;4990227;28;20058;-64
2022/10/29 12:33:54;;;;;;;5.25;2.40;;;;;;;;;;4999410;28;20501;-65
2022/10/29 12:36:33;;;;;;;7.68;2.78;;;;;;;;;;5012647;28;20057;-65
2022/10/29 12:39:05;;;;;;;2.40;1.02;;;;;;;;;;5023660;28;20105;-67
2022/10/29 12:41:50;;;;;;;2.60;1.27;;;;;;;;;;5026670;28;20061;-67
2022/10/29 12:44:44;;;;;;;5.20;2.38;;;;;;;;;;5010053;28;20053;-66
2022/10/29 12:47:24;;;;;;;8.82;4.50;;;;;;;;;;5005914;28;20057;-68
2022/10/29 12:50:04;;;;;;;6.38;3.53;;;;;;;;;;5001113;28;20582;-68
2022/10/29 12:53:09;;;;;;;5.55;2.30;;;;;;;;;;4948749;28;20462;-67
2022/10/29 12:55:41;;;;;;;32.63;16.38;;;;;;;;;;4939007;28;20066;-67
2022/10/29 12:58:43;;;;;;;11.57;5.97;;;;;;;;;;4970676;28;20046;-67
2022/10/29 13:01:25;;;;;;;6.95;3.92;;;;;;;;;;5011198;28;20050;-67
2022/10/29 13:04:31;;;;;;;6.05;3.13;;;;;;;;;;5023233;28;20054;-67
2022/10/29 13:07:21;;;;;;;7.55;3.47;;;;;;;;;;5029255;28;20057;-66
2022/10/29 13:10:27;;;;;;;7.28;3.13;;;;;;;;;;5045990;28;20052;-67
2022/10/29 13:13:15;;;;;;;5.75;2.03;;;;;;;;;;5044725;28;20076;-66
2022/10/29 13:16:17;;;;;;;5.15;2.53;;;;;;;;;;5004706;28;20053;-66
2022/10/29 13:19:17;;;;;;;4.00;1.65;;;;;;;;;;5048144;28;20056;-68
2022/10/29 13:22:02;;;;;;;6.22;4.00;;;;;;;;;;5051292;28;20048;-68
2022/10/29 13:24:32;;;;;;;3.38;1.50;;;;;;;;;;5065257;28;20516;-71
2022/10/29 13:27:23;;;;;;;3.63;1.75;;;;;;;;;;5059105;28;20478;-68
2022/10/29 13:30:15;;;;;;;4.20;2.00;;;;;;;;;;5051311;28;20535;-68
2022/10/29 13:32:45;;;;;;;2.28;1.05;;;;;;;;;;5074177;28;20407;-67
2022/10/29 13:35:19;;;;;;;1.60;0.90;;;;;;;;;;5115200;28;20394;-67
2022/10/29 13:38:10;;;;;;;3.70;1.80;;;;;;;;;;5093016;27;20516;-67
2022/10/29 13:40:53;;;;;;;3.38;1.00;;;;;;;;;;5112431;27;20054;-67
2022/10/29 13:43:23;;;;;;;1.70;1.20;;;;;;;;;;5048699;28;20412;-66
2022/10/29 13:46:10;;;;;;;4.03;1.50;;;;;;;;;;5035219;28;20064;-66
2022/10/29 13:48:42;;;;;;;3.88;2.13;;;;;;;;;;5038490;28;20070;-65
2022/10/29 13:51:19;;;;;;;2.53;1.10;;;;;;;;;;5062249;28;20424;-66
2022/10/29 13:53:58;;;;;;;2.25;1.15;;;;;;;;;;5068932;28;20037;-66
2022/10/29 13:56:48;;;;;;;3.67;1.73;;;;;;;;;;5057800;28;20055;-66
2022/10/29 13:59:30;;;;;;;4.07;1.25;;;;;;;;;;5051677;28;20052;-66
2022/10/29 14:02:24;;;;;;;2.17;1.10;;;;;;;;;;5034852;28;20451;-65
2022/10/29 14:05:14;;;;;;;2.83;1.60;;;;;;;;;;5031549;28;20049;-66
2022/10/29 14:08:09;;;;;;;3.25;1.30;;;;;;;;;;4999320;28;20560;-65
2022/10/29 14:10:39;;;;;;;3.80;1.88;;;;;;;;;;4991974;28;20189;-65
2022/10/29 14:13:27;;;;;;;6.05;3.97;;;;;;;;;;4991965;28;20058;-67
2022/10/29 14:16:10;;;;;;;2.90;1.48;;;;;;;;;;4989818;28;20174;-65
2022/10/29 14:18:45;;;;;;;3.75;1.20;;;;;;;;;;4974788;28;20062;-65
2022/10/29 14:21:20;;;;;;;3.72;1.08;;;;;;;;;;4967765;28;20057;-65
2022/10/29 14:24:05;;;;;;;4.07;1.30;;;;;;;;;;4978366;28;20065;-66
2022/10/29 14:26:38;;;;;;;2.53;1.50;;;;;;;;;;4979628;28;20054;-66
2022/10/29 14:29:24;;;;;;;2.67;1.35;;;;;;;;;;5011546;28;20058;-66
2022/10/29 14:32:21;;;;;;;4.05;1.13;;;;;;;;;;5011370;28;20548;-67
2022/10/29 14:34:53;;;;;;;2.40;1.02;;;;;;;;;;5011715;28;20058;-66
2022/10/29 14:37:40;;;;;;;3.20;0.90;;;;;;;;;;5011490;28;20044;-71
2022/10/29 14:40:19;;;;;;;2.85;1.15;;;;;;;;;;5030909;28;20116;-71
2022/10/29 14:42:53;;;;;;;3.20;2.13;;;;;;;;;;5030498;28;20046;-70
2022/10/29 14:45:27;;;;;;;3.67;0.80;;;;;;;;;;5031085;28;20073;-69
2022/10/29 14:48:02;;;;;;;2.03;1.05;;;;;;;;;;5045459;28;20055;-72
2022/10/29 14:50:32;;;;;;;2.47;1.10;;;;;;;;;;5070950;28;20061;-69
2022/10/29 14:53:28;;;;;;;4.38;1.63;;;;;;;;;;5020887;28;20049;-67
2022/10/29 14:55:59;;;;;;;5.50;2.72;;;;;;;;;;5070762;28;20045;-66
2022/10/29 14:58:35;;;;;;;2.28;1.10;;;;;;;;;;5070815;28;20056;-66
2022/10/29 15:01:18;;;;;;;1.70;1.00;;;;;;;;;;5070805;28;20053;-68
2022/10/29 15:04:00;;;;;;;3.47;0.98;;;;;;;;;;5070786;28;20084;-65
2022/10/29 15:06:31;;;;;;;2.83;1.10;;;;;;;;;;5037548;28;20539;-67
2022/10/29 15:09:06;;;;;;;3.25;0.90;;;;;;;;;;5070639;28;20396;-67
2022/10/29 15:11:57;;;;;;;1.42;0.75;;;;;;;;;;5070468;28;20048;-69
2022/10/29 15:14:31;;;;;;;2.40;0.88;;;;;;;;;;5020745;28;20447;-69
2022/10/29 15:17:08;;;;;;;1.75;0.98;;;;;;;;;;5070387;28;20059;-68
2022/10/29 15:19:43;;;;;;;1.42;0.90;;;;;;;;;;5044990;28;20056;-67
2022/10/29 15:22:29;;;;;;;1.60;0.90;;;;;;;;;;5113127;28;20372;-66
2022/10/29 15:25:02;;;;;;;2.67;0.85;;;;;;;;;;5113490;28;20042;-67
2022/10/29 15:27:36;;;;;;;2.58;1.75;;;;;;;;;;5077253;28;20071;-67
2022/10/29 15:30:16;;;;;;;2.00;1.20;;;;;;;;;;5095372;28;20048;-66
2022/10/29 15:32:48;;;;;;;3.35;1.30;;;;;;;;;;5113194;28;20054;-66
2022/10/29 15:35:20;;;;;;;1.92;0.80;;;;;;;;;;5113114;28;20517;-65
2022/10/29 15:37:52;;;;;;;3.15;0.90;;;;;;;;;;5113082;28;20039;-66
2022/10/29 15:40:24;;;;;;;1.92;0.73;;;;;;;;;;5112995;28;20047;-65
2022/10/29 15:42:55;;;;;;;4.00;1.00;;;;;;;;;;5052896;28;20048;-66
2022/10/29 15:45:27;;;;;;;1.75;0.75;;;;;;;;;;5036583;28;20048;-66
2022/10/29 15:48:35;;;;;;;4.10;1.60;;;;;;;;;;5069973;28;20519;-65
2022/10/29 15:51:05;;;;;;;2.47;0.93;;;;;;;;;;5069858;28;20048;-65
2022/10/29 15:53:36;;;;;;;2.03;0.70;;;;;;;;;;5069461;28;20044;-66
2022/10/29 15:56:10;;;;;;;0.98;0.60;;;;;;;;;;5069885;28;20055;-65